Time;durP1;ratioP1;P1;durP2;ratioP2;P2;SDS_P1;SDS_P2;PMS_P1;PMS_P2;Temp;Humidity;BMP_temperature;BMP_pressure;BME280_temperature;BME280_humidity;BME280_pressure;Samples;Min_cycle;Max_cycle;Signal;HPM_P1;HPM_P2
2023/06/10 00:01:30;;;;;;;7.37;4.77;;;;;;;;;;4983832;28;20213;-34
2023/06/10 00:03:57;;;;;;;6.70;4.87;;;;;;;;;;4981982;28;20208;-32
2023/06/10 00:06:24;;;;;;;5.40;4.73;;;;;;;;;;4987397;28;20315;-33
2023/06/10 00:08:53;;;;;;;5.20;4.60;;;;;;;;;;4984483;28;20215;-32
2023/06/10 00:11:21;;;;;;;5.77;5.27;;;;;;;;;;4986921;28;20295;-31
2023/06/10 00:13:48;;;;;;;4.20;3.90;;;;;;;;;;4987768;28;20204;-32
2023/06/10 00:16:17;;;;;;;5.00;4.43;;;;;;;;;;4987022;28;20239;-35
2023/06/10 00:18:44;;;;;;;5.43;4.27;;;;;;;;;;4985317;28;20211;-36
2023/06/10 00:21:13;;;;;;;5.60;4.90;;;;;;;;;;4987353;28;20204;-31
2023/06/10 00:23:41;;;;;;;5.90;5.30;;;;;;;;;;4980917;28;20204;-37
2023/06/10 00:26:09;;;;;;;5.07;4.67;;;;;;;;;;4982736;28;20227;-32
2023/06/10 00:28:36;;;;;;;5.90;4.30;;;;;;;;;;4987537;28;20226;-35
2023/06/10 00:31:04;;;;;;;4.90;4.50;;;;;;;;;;4983982;28;20219;-33
2023/06/10 00:33:31;;;;;;;5.20;4.67;;;;;;;;;;4987009;28;20218;-33
2023/06/10 00:35:58;;;;;;;4.87;4.40;;;;;;;;;;4987255;28;20448;-34
2023/06/10 00:38:25;;;;;;;6.13;4.77;;;;;;;;;;4983021;28;20203;-34
2023/06/10 00:40:52;;;;;;;7.00;5.30;;;;;;;;;;4986192;28;20207;-32
2023/06/10 00:43:20;;;;;;;5.20;4.80;;;;;;;;;;4987832;28;20210;-33
2023/06/10 00:45:48;;;;;;;6.07;4.70;;;;;;;;;;4984357;28;20529;-31
2023/06/10 00:48:15;;;;;;;5.37;4.87;;;;;;;;;;4977274;28;20207;-32
2023/06/10 00:50:42;;;;;;;5.33;4.70;;;;;;;;;;4987329;28;20212;-35
2023/06/10 00:53:10;;;;;;;5.17;4.73;;;;;;;;;;4980135;28;20204;-34
2023/06/10 00:55:37;;;;;;;5.17;4.77;;;;;;;;;;4984072;28;20314;-34
2023/06/10 00:58:05;;;;;;;4.70;4.30;;;;;;;;;;4986307;28;20219;-32
2023/06/10 01:00:33;;;;;;;5.57;5.07;;;;;;;;;;4986938;28;20215;-34
2023/06/10 01:03:00;;;;;;;5.33;4.83;;;;;;;;;;4977306;28;20199;-31
2023/06/10 01:05:27;;;;;;;5.40;4.90;;;;;;;;;;4986160;28;20221;-33
2023/06/10 01:08:05;;;;;;;5.17;4.67;;;;;;;;;;4981914;28;20205;-31
2023/06/10 01:10:35;;;;;;;8.27;4.83;;;;;;;;;;4982452;28;20211;-31
2023/06/10 01:13:03;;;;;;;6.80;4.67;;;;;;;;;;4986434;28;20196;-31
2023/06/10 01:15:31;;;;;;;4.47;4.13;;;;;;;;;;4986864;28;20226;-32
2023/06/10 01:18:01;;;;;;;6.13;5.53;;;;;;;;;;4981802;28;20220;-33
2023/06/10 01:20:29;;;;;;;5.37;4.87;;;;;;;;;;4986581;28;20212;-30
2023/06/10 01:22:58;;;;;;;6.07;5.03;;;;;;;;;;4982028;28;20215;-32
2023/06/10 01:25:28;;;;;;;5.27;4.60;;;;;;;;;;4987986;28;20238;-28
2023/06/10 01:27:57;;;;;;;5.60;5.10;;;;;;;;;;4991198;28;20269;-32
2023/06/10 01:30:29;;;;;;;5.77;4.90;;;;;;;;;;4991541;28;20221;-33
2023/06/10 01:32:57;;;;;;;5.53;5.00;;;;;;;;;;4971695;28;20291;-33
2023/06/10 01:35:26;;;;;;;6.00;5.00;;;;;;;;;;4980862;28;20210;-31
2023/06/10 01:37:54;;;;;;;5.20;4.63;;;;;;;;;;4983097;28;20227;-30
2023/06/10 01:40:24;;;;;;;4.90;4.40;;;;;;;;;;4983723;28;20215;-30
2023/06/10 01:42:53;;;;;;;5.93;5.10;;;;;;;;;;4987181;28;20212;-34
2023/06/10 01:45:20;;;;;;;4.73;4.30;;;;;;;;;;4986558;28;20215;-33
2023/06/10 01:47:47;;;;;;;6.73;5.40;;;;;;;;;;4976622;28;20283;-34
2023/06/10 01:50:14;;;;;;;6.33;5.20;;;;;;;;;;4985423;28;20206;-32
2023/06/10 01:52:41;;;;;;;6.17;5.07;;;;;;;;;;4980809;28;20223;-30
2023/06/10 01:55:08;;;;;;;5.60;5.17;;;;;;;;;;4980587;28;20204;-35
2023/06/10 01:57:36;;;;;;;5.30;4.70;;;;;;;;;;4989880;28;20397;-33
2023/06/10 02:00:04;;;;;;;5.10;4.70;;;;;;;;;;4990239;28;20215;-31
2023/06/10 02:02:31;;;;;;;5.43;4.90;;;;;;;;;;4985917;28;20202;-35
2023/06/10 02:04:58;;;;;;;5.33;4.90;;;;;;;;;;4984645;28;20294;-34
2023/06/10 02:07:25;;;;;;;4.87;4.47;;;;;;;;;;4982183;28;20226;-32
2023/06/10 02:09:52;;;;;;;6.60;4.63;;;;;;;;;;4981357;28;20215;-34
2023/06/10 02:12:19;;;;;;;5.70;5.10;;;;;;;;;;4985442;28;20415;-34
2023/06/10 02:14:47;;;;;;;5.70;4.27;;;;;;;;;;4984845;28;20222;-31
2023/06/10 02:17:14;;;;;;;5.30;4.90;;;;;;;;;;4972513;28;20237;-32
2023/06/10 02:19:43;;;;;;;5.27;4.70;;;;;;;;;;4982158;28;20203;-34
2023/06/10 02:22:10;;;;;;;5.83;4.50;;;;;;;;;;4984756;28;20262;-34
2023/06/10 02:24:37;;;;;;;4.70;4.30;;;;;;;;;;4972148;28;20228;-33
2023/06/10 02:27:06;;;;;;;5.23;4.73;;;;;;;;;;4985154;28;20310;-32
2023/06/10 02:29:33;;;;;;;5.30;4.73;;;;;;;;;;4985212;28;20661;-33
2023/06/10 02:32:02;;;;;;;7.23;5.13;;;;;;;;;;4974065;28;20232;-35
2023/06/10 02:34:29;;;;;;;5.90;5.10;;;;;;;;;;4980359;28;20211;-31
2023/06/10 02:36:56;;;;;;;6.50;5.13;;;;;;;;;;4984157;28;20246;-35
2023/06/10 02:39:24;;;;;;;5.03;4.53;;;;;;;;;;4980376;28;20219;-31
2023/06/10 02:41:51;;;;;;;5.10;4.60;;;;;;;;;;4984871;28;20222;-31
2023/06/10 02:44:20;;;;;;;5.57;4.57;;;;;;;;;;4985037;28;20218;-32
2023/06/10 02:46:47;;;;;;;4.97;4.40;;;;;;;;;;4983573;28;20809;-33
2023/06/10 02:49:15;;;;;;;5.00;4.60;;;;;;;;;;4988776;28;20214;-35
2023/06/10 02:51:43;;;;;;;5.57;5.07;;;;;;;;;;4987967;28;20209;-33
2023/06/10 02:54:10;;;;;;;4.70;4.33;;;;;;;;;;4979108;28;20204;-33
2023/06/10 02:56:41;;;;;;;4.87;4.47;;;;;;;;;;4987305;28;20237;-32
2023/06/10 02:59:08;;;;;;;6.03;4.57;;;;;;;;;;4988198;28;20241;-31
2023/06/10 03:01:36;;;;;;;5.20;4.70;;;;;;;;;;4984949;28;20210;-30
2023/06/10 03:04:04;;;;;;;7.40;4.70;;;;;;;;;;4984422;28;20214;-34
2023/06/10 03:06:33;;;;;;;5.43;4.93;;;;;;;;;;4987326;28;20320;-32
2023/06/10 03:09:01;;;;;;;5.27;4.60;;;;;;;;;;4982072;28;20207;-33
2023/06/10 03:11:34;;;;;;;6.00;4.87;;;;;;;;;;4986922;28;20213;-35
2023/06/10 03:14:01;;;;;;;4.80;4.37;;;;;;;;;;4968875;28;20288;-33
2023/06/10 03:16:30;;;;;;;4.93;4.43;;;;;;;;;;4968184;28;20227;-33
2023/06/10 03:18:57;;;;;;;7.37;4.60;;;;;;;;;;4976478;28;20219;-33
2023/06/10 03:21:24;;;;;;;5.00;4.50;;;;;;;;;;4983404;28;20204;-30
2023/06/10 03:23:52;;;;;;;5.23;4.83;;;;;;;;;;4979368;28;20207;-32
2023/06/10 03:26:21;;;;;;;5.10;4.27;;;;;;;;;;4985433;28;20237;-34
2023/06/10 03:28:49;;;;;;;4.80;4.40;;;;;;;;;;4987847;28;20286;-31
2023/06/10 03:31:17;;;;;;;4.87;4.43;;;;;;;;;;4987734;28;20678;-31
2023/06/10 03:33:44;;;;;;;4.97;4.50;;;;;;;;;;4984543;28;20211;-28
2023/06/10 03:36:11;;;;;;;5.33;4.83;;;;;;;;;;4990210;28;20237;-32
2023/06/10 03:38:38;;;;;;;5.27;4.60;;;;;;;;;;4984199;28;20249;-31
2023/06/10 03:41:07;;;;;;;4.90;4.50;;;;;;;;;;4990688;28;20206;-27
2023/06/10 03:43:34;;;;;;;5.03;4.47;;;;;;;;;;4991283;28;20220;-35
2023/06/10 03:46:01;;;;;;;5.23;4.77;;;;;;;;;;4990921;28;20237;-32
2023/06/10 03:48:28;;;;;;;4.67;4.27;;;;;;;;;;4985242;28;20207;-31
2023/06/10 03:50:55;;;;;;;5.07;4.53;;;;;;;;;;4990620;28;20210;-31
2023/06/10 03:53:22;;;;;;;4.60;4.20;;;;;;;;;;4984595;28;20212;-30
2023/06/10 03:55:49;;;;;;;4.93;4.53;;;;;;;;;;4987528;28;20225;-33
2023/06/10 03:58:17;;;;;;;5.20;4.70;;;;;;;;;;4990181;28;20230;-35
2023/06/10 04:00:45;;;;;;;4.90;4.40;;;;;;;;;;4991377;28;20213;-30
2023/06/10 04:03:14;;;;;;;4.90;4.50;;;;;;;;;;4980744;28;20206;-31
2023/06/10 04:05:42;;;;;;;5.20;4.60;;;;;;;;;;4990227;28;20569;-36
2023/06/10 04:08:09;;;;;;;6.87;5.30;;;;;;;;;;4988182;28;20206;-33
2023/06/10 04:10:36;;;;;;;5.53;4.60;;;;;;;;;;4987233;28;20476;-30
2023/06/10 04:13:03;;;;;;;6.47;4.97;;;;;;;;;;4990847;28;20213;-31
2023/06/10 04:15:33;;;;;;;5.20;4.10;;;;;;;;;;4986941;28;20594;-31
2023/06/10 04:18:01;;;;;;;5.50;5.00;;;;;;;;;;4982628;28;20226;-29
2023/06/10 04:20:28;;;;;;;5.40;5.00;;;;;;;;;;4990332;28;20245;-32
2023/06/10 04:22:55;;;;;;;4.63;4.23;;;;;;;;;;4984579;28;20214;-31
2023/06/10 04:25:22;;;;;;;4.63;4.23;;;;;;;;;;4987163;28;20275;-31
2023/06/10 04:27:49;;;;;;;5.10;4.60;;;;;;;;;;4988792;28;20206;-33
2023/06/10 04:30:16;;;;;;;5.33;4.63;;;;;;;;;;4990615;28;20225;-32
2023/06/10 04:32:45;;;;;;;4.83;4.33;;;;;;;;;;4978125;28;20223;-32
2023/06/10 04:35:13;;;;;;;6.63;4.87;;;;;;;;;;4989568;28;20214;-29
2023/06/10 04:37:41;;;;;;;5.07;4.57;;;;;;;;;;4983738;28;20223;-36
2023/06/10 04:40:08;;;;;;;5.07;4.60;;;;;;;;;;4978903;28;20213;-34
2023/06/10 04:42:35;;;;;;;6.83;5.10;;;;;;;;;;4990090;28;20210;-32
2023/06/10 04:45:03;;;;;;;5.53;4.73;;;;;;;;;;4990493;28;20297;-33
2023/06/10 04:47:32;;;;;;;4.80;4.30;;;;;;;;;;4986206;28;20234;-30
2023/06/10 04:50:01;;;;;;;5.80;4.60;;;;;;;;;;4985890;28;20248;-32
2023/06/10 04:52:28;;;;;;;4.53;4.13;;;;;;;;;;4986936;28;20209;-30
2023/06/10 04:54:55;;;;;;;4.60;4.20;;;;;;;;;;4981688;28;20311;-30
2023/06/10 04:57:22;;;;;;;4.90;4.50;;;;;;;;;;4988450;28;20222;-32
2023/06/10 04:59:49;;;;;;;5.17;4.67;;;;;;;;;;4986474;28;20205;-34
2023/06/10 05:02:17;;;;;;;4.83;4.30;;;;;;;;;;4983892;28;20214;-30
2023/06/10 05:04:44;;;;;;;5.60;5.10;;;;;;;;;;4975101;28;20216;-31
2023/06/10 05:07:12;;;;;;;5.97;4.97;;;;;;;;;;4989679;28;20222;-32
2023/06/10 05:09:39;;;;;;;7.30;4.47;;;;;;;;;;4978128;28;20210;-31
2023/06/10 05:12:07;;;;;;;5.70;5.10;;;;;;;;;;4989529;28;20230;-33
2023/06/10 05:14:34;;;;;;;5.10;4.70;;;;;;;;;;4988945;28;20203;-32
2023/06/10 05:17:01;;;;;;;4.73;4.33;;;;;;;;;;4979825;28;20227;-32
2023/06/10 05:19:28;;;;;;;5.77;4.23;;;;;;;;;;4985558;28;20230;-33
2023/06/10 05:21:55;;;;;;;7.33;4.97;;;;;;;;;;4986521;28;20210;-30
2023/06/10 05:24:24;;;;;;;6.57;4.67;;;;;;;;;;4976243;28;20211;-32
2023/06/10 05:26:51;;;;;;;5.83;5.23;;;;;;;;;;4987856;28;20327;-32
2023/06/10 05:29:18;;;;;;;5.33;4.83;;;;;;;;;;4989625;28;20215;-33
2023/06/10 05:31:45;;;;;;;5.53;4.97;;;;;;;;;;4982977;28;20215;-33
2023/06/10 05:34:12;;;;;;;5.23;4.53;;;;;;;;;;4986090;28;20210;-29
2023/06/10 05:36:39;;;;;;;4.73;4.33;;;;;;;;;;4989216;28;20215;-31
2023/06/10 05:39:06;;;;;;;4.93;4.30;;;;;;;;;;4979137;28;20220;-30
2023/06/10 05:41:34;;;;;;;6.03;4.43;;;;;;;;;;4988411;28;20211;-32
2023/06/10 05:44:01;;;;;;;4.90;4.40;;;;;;;;;;4989728;28;20204;-32
2023/06/10 05:46:28;;;;;;;4.53;4.13;;;;;;;;;;4987162;28;20227;-29
2023/06/10 05:48:55;;;;;;;4.73;4.20;;;;;;;;;;4986027;28;20226;-35
2023/06/10 05:51:27;;;;;;;5.07;4.20;;;;;;;;;;4990978;28;20210;-31
2023/06/10 05:53:55;;;;;;;5.93;4.05;;;;;;;;;;4978094;28;20211;-34
2023/06/10 05:56:23;;;;;;;4.88;4.47;;;;;;;;;;4988161;28;20243;-33
2023/06/10 05:58:51;;;;;;;6.65;4.40;;;;;;;;;;4989732;28;20244;-32
2023/06/10 06:01:18;;;;;;;4.45;4.05;;;;;;;;;;4989293;28;20231;-31
2023/06/10 06:03:45;;;;;;;4.93;4.43;;;;;;;;;;4978693;28;20209;-29
2023/06/10 06:06:13;;;;;;;3.97;3.67;;;;;;;;;;4988848;28;20224;-28
2023/06/10 06:08:40;;;;;;;4.38;3.97;;;;;;;;;;4978405;28;20205;-34
2023/06/10 06:11:07;;;;;;;3.85;3.55;;;;;;;;;;4985572;28;20204;-34
2023/06/10 06:13:35;;;;;;;4.22;3.75;;;;;;;;;;4985509;28;20215;-30
2023/06/10 06:16:04;;;;;;;4.50;4.10;;;;;;;;;;4983006;28;20234;-30
2023/06/10 06:18:35;;;;;;;4.25;3.85;;;;;;;;;;4976955;28;20225;-30
2023/06/10 06:21:02;;;;;;;4.25;3.85;;;;;;;;;;4990579;28;20196;-31
2023/06/10 06:23:30;;;;;;;4.30;3.95;;;;;;;;;;4985314;28;20211;-30
2023/06/10 06:25:57;;;;;;;4.10;3.65;;;;;;;;;;4990843;28;20230;-31
2023/06/10 06:28:28;;;;;;;4.40;4.10;;;;;;;;;;4992304;28;20207;-31
2023/06/10 06:30:56;;;;;;;4.40;4.00;;;;;;;;;;4986996;28;20307;-32
2023/06/10 06:33:26;;;;;;;4.10;3.70;;;;;;;;;;4985768;28;20216;-32
2023/06/10 06:35:53;;;;;;;5.03;4.57;;;;;;;;;;4989658;28;20657;-30
2023/06/10 06:38:20;;;;;;;4.05;3.75;;;;;;;;;;4983054;28;20271;-31
2023/06/10 06:40:47;;;;;;;3.80;3.50;;;;;;;;;;4991855;28;20263;-29
2023/06/10 06:43:14;;;;;;;4.05;3.70;;;;;;;;;;4992894;28;20208;-31
2023/06/10 06:45:41;;;;;;;4.22;3.83;;;;;;;;;;4996553;28;20223;-32
2023/06/10 06:48:08;;;;;;;5.03;4.53;;;;;;;;;;4993163;28;20205;-33
2023/06/10 06:50:37;;;;;;;3.97;3.67;;;;;;;;;;4993091;28;20220;-32
2023/06/10 06:53:04;;;;;;;4.40;4.00;;;;;;;;;;4982272;28;20201;-33
2023/06/10 06:55:31;;;;;;;3.90;3.60;;;;;;;;;;4981436;28;20735;-32
2023/06/10 06:57:58;;;;;;;4.70;3.97;;;;;;;;;;4992731;28;20209;-32
2023/06/10 07:00:25;;;;;;;5.28;3.78;;;;;;;;;;4991919;28;20293;-29
2023/06/10 07:02:52;;;;;;;4.53;3.60;;;;;;;;;;4987957;28;20222;-33
2023/06/10 07:05:19;;;;;;;6.43;3.38;;;;;;;;;;4992885;28;20206;-34
2023/06/10 07:07:48;;;;;;;3.83;3.53;;;;;;;;;;4987514;28;20202;-30
2023/06/10 07:10:15;;;;;;;5.32;3.38;;;;;;;;;;4989736;28;20216;-31
2023/06/10 07:12:42;;;;;;;3.72;3.42;;;;;;;;;;4979427;28;20242;-33
2023/06/10 07:15:10;;;;;;;6.55;4.15;;;;;;;;;;4992952;28;20274;-33
2023/06/10 07:17:37;;;;;;;4.43;3.38;;;;;;;;;;4992293;28;20217;-32
2023/06/10 07:20:05;;;;;;;3.85;3.50;;;;;;;;;;4993162;28;20448;-31
2023/06/10 07:22:32;;;;;;;3.70;3.40;;;;;;;;;;4974258;28;20230;-31
2023/06/10 07:25:00;;;;;;;3.80;3.50;;;;;;;;;;4983839;28;20218;-30
2023/06/10 07:27:27;;;;;;;4.90;3.45;;;;;;;;;;4992257;28;20251;-30
2023/06/10 07:29:55;;;;;;;6.35;3.10;;;;;;;;;;4987466;28;20216;-32
2023/06/10 07:32:23;;;;;;;5.57;3.53;;;;;;;;;;4982705;28;20213;-35
2023/06/10 07:34:50;;;;;;;4.38;3.88;;;;;;;;;;4985086;28;20215;-31
2023/06/10 07:37:19;;;;;;;4.63;3.80;;;;;;;;;;4992530;28;20234;-33
2023/06/10 07:39:46;;;;;;;4.28;3.70;;;;;;;;;;4981834;28;20234;-33
2023/06/10 07:42:15;;;;;;;4.53;3.92;;;;;;;;;;4992247;28;20204;-32
2023/06/10 07:44:42;;;;;;;3.55;3.25;;;;;;;;;;4979263;28;20208;-30
2023/06/10 07:47:09;;;;;;;3.90;3.50;;;;;;;;;;4986318;28;20219;-32
2023/06/10 07:49:36;;;;;;;4.00;3.47;;;;;;;;;;4993311;28;20204;-32
2023/06/10 07:52:16;;;;;;;4.30;3.90;;;;;;;;;;4990452;28;20243;-30
2023/06/10 07:54:43;;;;;;;3.65;3.35;;;;;;;;;;4982991;28;20214;-31
2023/06/10 07:57:10;;;;;;;4.05;3.67;;;;;;;;;;4991887;28;20228;-33
2023/06/10 07:59:39;;;;;;;4.50;4.03;;;;;;;;;;4992340;28;20227;-31
2023/06/10 08:02:06;;;;;;;3.88;3.58;;;;;;;;;;4983834;28;20216;-34
2023/06/10 08:04:35;;;;;;;4.55;3.47;;;;;;;;;;4984910;28;20211;-30
2023/06/10 08:07:06;;;;;;;3.83;3.53;;;;;;;;;;4981822;28;20243;-34
2023/06/10 08:09:33;;;;;;;3.70;3.40;;;;;;;;;;4985693;28;20216;-32
2023/06/10 08:12:01;;;;;;;3.85;3.42;;;;;;;;;;4982572;28;20212;-35
2023/06/10 08:14:28;;;;;;;3.75;3.45;;;;;;;;;;4989967;28;20218;-31
2023/06/10 08:16:56;;;;;;;4.10;3.72;;;;;;;;;;4989676;28;20224;-31
2023/06/10 08:19:23;;;;;;;3.42;3.13;;;;;;;;;;4987965;28;20227;-34
2023/06/10 08:21:51;;;;;;;3.97;3.30;;;;;;;;;;4979989;28;20216;-35
2023/06/10 08:24:18;;;;;;;3.85;3.55;;;;;;;;;;4977072;28;20211;-32
2023/06/10 08:26:45;;;;;;;4.00;3.42;;;;;;;;;;4987176;28;20234;-36
2023/06/10 08:29:13;;;;;;;3.40;3.20;;;;;;;;;;4989485;28;20203;-29
2023/06/10 08:31:42;;;;;;;4.25;3.85;;;;;;;;;;4984284;28;20211;-29
2023/06/10 08:34:11;;;;;;;3.97;3.30;;;;;;;;;;4975385;28;20212;-34
2023/06/10 08:36:38;;;;;;;4.00;3.42;;;;;;;;;;4982128;28;20300;-30
2023/06/10 08:39:06;;;;;;;3.47;3.15;;;;;;;;;;4977811;28;20244;-30
2023/06/10 08:41:36;;;;;;;4.00;3.60;;;;;;;;;;4977869;28;20216;-30
2023/06/10 08:44:08;;;;;;;3.53;3.22;;;;;;;;;;4991227;28;20209;-32
2023/06/10 08:46:46;;;;;;;3.38;3.10;;;;;;;;;;4991325;28;20338;-30
2023/06/10 08:49:20;;;;;;;3.75;3.45;;;;;;;;;;4990292;28;20252;-35
2023/06/10 08:51:57;;;;;;;4.70;3.45;;;;;;;;;;4986155;28;20658;-33
2023/06/10 08:54:26;;;;;;;3.65;3.35;;;;;;;;;;4977926;28;20199;-32
2023/06/10 08:56:55;;;;;;;3.40;3.10;;;;;;;;;;4981016;28;20231;-33
2023/06/10 08:59:22;;;;;;;3.72;3.42;;;;;;;;;;4989458;28;20235;-29
2023/06/10 09:01:50;;;;;;;3.72;3.38;;;;;;;;;;5008403;28;20203;-32
2023/06/10 09:04:19;;;;;;;3.92;3.58;;;;;;;;;;4979529;28;20200;-33
2023/06/10 09:06:46;;;;;;;2.88;2.67;;;;;;;;;;4987833;28;20716;-33
2023/06/10 09:09:13;;;;;;;3.50;3.20;;;;;;;;;;4978483;28;20216;-32
2023/06/10 09:11:41;;;;;;;3.53;3.00;;;;;;;;;;4987622;28;20204;-34
2023/06/10 09:14:08;;;;;;;4.00;3.53;;;;;;;;;;4987561;28;20204;-32
2023/06/10 09:16:37;;;;;;;3.67;3.47;;;;;;;;;;4986392;28;20623;-27
2023/06/10 09:19:07;;;;;;;3.47;3.05;;;;;;;;;;4979937;28;20196;-31
2023/06/10 09:21:36;;;;;;;3.50;3.20;;;;;;;;;;4985407;28;20246;-32
2023/06/10 09:24:04;;;;;;;3.88;3.10;;;;;;;;;;4968753;28;20203;-32
2023/06/10 09:26:31;;;;;;;3.70;3.40;;;;;;;;;;4976518;28;20371;-34
2023/06/10 09:28:59;;;;;;;3.40;3.10;;;;;;;;;;4988298;28;20219;-32
2023/06/10 09:31:26;;;;;;;3.40;3.20;;;;;;;;;;4986542;28;20242;-31
2023/06/10 09:34:12;;;;;;;4.22;3.05;;;;;;;;;;4988586;28;20220;-31
2023/06/10 09:36:40;;;;;;;3.70;3.40;;;;;;;;;;4988991;28;20449;-33
2023/06/10 09:39:15;;;;;;;3.95;3.50;;;;;;;;;;4982501;28;20208;-31
2023/06/10 09:41:43;;;;;;;3.63;3.33;;;;;;;;;;4972772;28;20261;-32
2023/06/10 09:44:13;;;;;;;4.35;3.17;;;;;;;;;;4985285;28;20218;-31
2023/06/10 09:46:40;;;;;;;3.97;3.28;;;;;;;;;;4985152;28;20616;-33
2023/06/10 09:49:07;;;;;;;3.47;3.28;;;;;;;;;;4990530;28;20211;-32
2023/06/10 09:51:34;;;;;;;3.13;2.92;;;;;;;;;;4986396;28;20222;-31
2023/06/10 09:54:04;;;;;;;3.85;3.10;;;;;;;;;;4977130;28;20218;-33
2023/06/10 09:56:35;;;;;;;3.67;3.38;;;;;;;;;;4990519;28;20232;-32
2023/06/10 09:59:02;;;;;;;2.92;2.72;;;;;;;;;;4991477;28;20207;-32
2023/06/10 10:01:29;;;;;;;3.65;3.35;;;;;;;;;;4991542;28;20211;-31
2023/06/10 10:03:56;;;;;;;3.22;3.00;;;;;;;;;;4979700;28;20212;-33
2023/06/10 10:06:23;;;;;;;3.80;3.13;;;;;;;;;;4989242;28;20231;-35
2023/06/10 10:08:51;;;;;;;3.85;3.00;;;;;;;;;;4982899;28;20247;-32
2023/06/10 10:11:21;;;;;;;3.55;3.20;;;;;;;;;;4989751;28;20215;-29
2023/06/10 10:13:50;;;;;;;3.28;3.08;;;;;;;;;;4989829;28;20204;-32
2023/06/10 10:16:18;;;;;;;3.15;2.95;;;;;;;;;;4983688;28;20226;-32
2023/06/10 10:18:48;;;;;;;3.38;3.17;;;;;;;;;;4985704;28;20224;-33
2023/06/10 10:21:17;;;;;;;3.70;3.25;;;;;;;;;;4986717;28;20241;-30
2023/06/10 10:23:47;;;;;;;3.28;3.00;;;;;;;;;;4975135;28;20218;-31
2023/06/10 10:26:15;;;;;;;3.10;2.90;;;;;;;;;;4988138;28;20231;-30
2023/06/10 10:28:47;;;;;;;3.90;3.60;;;;;;;;;;4990233;28;20202;-31
2023/06/10 10:31:15;;;;;;;3.25;2.90;;;;;;;;;;4986464;28;20203;-33
2023/06/10 10:33:47;;;;;;;2.95;2.75;;;;;;;;;;4984981;28;20211;-30
2023/06/10 10:36:15;;;;;;;3.00;2.80;;;;;;;;;;4989492;28;20261;-32
2023/06/10 10:38:43;;;;;;;2.75;2.55;;;;;;;;;;4985200;28;20210;-30
2023/06/10 10:41:10;;;;;;;2.95;2.75;;;;;;;;;;4988932;28;20218;-33
2023/06/10 10:43:37;;;;;;;6.93;2.70;;;;;;;;;;4989704;28;20213;-30
2023/06/10 10:46:10;;;;;;;2.90;2.70;;;;;;;;;;4985575;28;20231;-29
2023/06/10 10:48:39;;;;;;;2.70;2.50;;;;;;;;;;4988324;28;20302;-31
2023/06/10 10:51:06;;;;;;;3.08;2.88;;;;;;;;;;4990073;28;20294;-30
2023/06/10 10:53:33;;;;;;;3.25;3.00;;;;;;;;;;4987437;28;20230;-34
2023/06/10 10:56:01;;;;;;;7.43;3.05;;;;;;;;;;4986225;28;20322;-34
2023/06/10 10:58:28;;;;;;;4.25;2.88;;;;;;;;;;4988846;28;20211;-32
2023/06/10 11:00:55;;;;;;;3.00;2.80;;;;;;;;;;4989787;28;20226;-31
2023/06/10 11:03:24;;;;;;;2.80;2.60;;;;;;;;;;4980726;28;20207;-33
2023/06/10 11:05:51;;;;;;;3.20;2.90;;;;;;;;;;4984029;28;20229;-29
2023/06/10 11:08:42;;;;;;;2.72;2.53;;;;;;;;;;4979403;28;20219;-30
2023/06/10 11:11:20;;;;;;;2.78;2.58;;;;;;;;;;4992352;28;20222;-35
2023/06/10 11:14:00;;;;;;;2.92;2.72;;;;;;;;;;4992750;28;20203;-32
2023/06/10 11:16:30;;;;;;;2.90;2.70;;;;;;;;;;4983848;28;20233;-33
2023/06/10 11:18:59;;;;;;;2.92;2.72;;;;;;;;;;4992050;28;20203;-28
2023/06/10 11:21:26;;;;;;;3.30;3.08;;;;;;;;;;4992051;28;20578;-31
2023/06/10 11:23:53;;;;;;;4.45;3.03;;;;;;;;;;4983302;28;20207;-32
2023/06/10 11:26:22;;;;;;;3.22;3.03;;;;;;;;;;4984161;28;20237;-28
2023/06/10 11:29:07;;;;;;;3.10;2.80;;;;;;;;;;4992122;28;20208;-34
2023/06/10 11:31:35;;;;;;;3.22;2.95;;;;;;;;;;4992837;28;20226;-34
2023/06/10 11:34:04;;;;;;;3.08;2.88;;;;;;;;;;4984489;28;20210;-30
2023/06/10 11:36:32;;;;;;;4.30;2.90;;;;;;;;;;4991949;28;20233;-30
2023/06/10 11:39:00;;;;;;;3.25;3.05;;;;;;;;;;4984504;28;20207;-34
2023/06/10 11:41:28;;;;;;;3.60;3.33;;;;;;;;;;4991172;28;20233;-33
2023/06/10 11:43:56;;;;;;;4.40;2.80;;;;;;;;;;4991821;28;20203;-33
2023/06/10 11:46:26;;;;;;;3.40;3.10;;;;;;;;;;4992488;28;20234;-31
2023/06/10 11:48:54;;;;;;;3.45;3.25;;;;;;;;;;4983232;28;20232;-30
2023/06/10 11:51:24;;;;;;;2.58;2.47;;;;;;;;;;4991439;28;20206;-31
2023/06/10 11:53:51;;;;;;;2.88;2.67;;;;;;;;;;4981515;28;20857;-30
2023/06/10 11:56:21;;;;;;;2.80;2.60;;;;;;;;;;4985838;28;20246;-31
2023/06/10 11:58:53;;;;;;;3.00;2.80;;;;;;;;;;4991164;28;20203;-32
2023/06/10 12:01:22;;;;;;;2.58;2.47;;;;;;;;;;4983021;28;20216;-31
2023/06/10 12:03:57;;;;;;;3.03;2.83;;;;;;;;;;4989739;28;20209;-33
2023/06/10 12:06:26;;;;;;;3.15;2.95;;;;;;;;;;4991680;28;20281;-33
2023/06/10 12:08:53;;;;;;;2.65;2.45;;;;;;;;;;4978400;28;20825;-32
2023/06/10 12:11:21;;;;;;;2.92;2.72;;;;;;;;;;4989332;28;20211;-30
2023/06/10 12:13:49;;;;;;;3.05;2.80;;;;;;;;;;4991923;28;20213;-33
2023/06/10 12:16:17;;;;;;;2.78;2.58;;;;;;;;;;4987431;28;20231;-33
2023/06/10 12:18:45;;;;;;;3.75;2.33;;;;;;;;;;4989738;28;20208;-32
2023/06/10 12:21:19;;;;;;;3.72;2.38;;;;;;;;;;4991499;28;20321;-35
2023/06/10 12:24:05;;;;;;;2.40;2.30;;;;;;;;;;4985838;28;20236;-33
2023/06/10 12:26:36;;;;;;;2.78;2.58;;;;;;;;;;4989774;28;20389;-35
2023/06/10 12:29:03;;;;;;;2.60;2.40;;;;;;;;;;4972164;28;20291;-31
2023/06/10 12:31:30;;;;;;;2.83;2.42;;;;;;;;;;4972389;28;20348;-31
2023/06/10 12:34:09;;;;;;;3.08;2.80;;;;;;;;;;4984345;28;20211;-32
2023/06/10 12:36:36;;;;;;;3.42;3.13;;;;;;;;;;4990925;28;20230;-28
2023/06/10 12:39:05;;;;;;;2.60;2.40;;;;;;;;;;4977177;28;20281;-35
2023/06/10 12:41:33;;;;;;;2.67;2.47;;;;;;;;;;4990892;28;20224;-32
2023/06/10 12:44:01;;;;;;;2.80;2.60;;;;;;;;;;4990034;28;20204;-32
2023/06/10 12:46:37;;;;;;;3.22;2.92;;;;;;;;;;4989643;28;20446;-34
2023/06/10 12:49:04;;;;;;;2.65;2.45;;;;;;;;;;4984701;28;20234;-34
2023/06/10 12:51:31;;;;;;;2.42;2.22;;;;;;;;;;4991167;28;20210;-30
2023/06/10 12:53:59;;;;;;;2.25;2.15;;;;;;;;;;4985200;28;20468;-34
2023/06/10 12:56:27;;;;;;;2.33;2.20;;;;;;;;;;4989718;28;20231;-28
2023/06/10 12:58:54;;;;;;;7.57;2.35;;;;;;;;;;4991153;28;20224;-31
2023/06/10 13:01:21;;;;;;;2.55;2.35;;;;;;;;;;4985878;28;20224;-30
2023/06/10 13:03:48;;;;;;;2.60;2.40;;;;;;;;;;4987272;28;20212;-33
2023/06/10 13:06:16;;;;;;;2.58;2.40;;;;;;;;;;4990818;28;20295;-34
2023/06/10 13:08:43;;;;;;;2.80;2.60;;;;;;;;;;4987051;28;20226;-31
2023/06/10 13:11:10;;;;;;;2.72;2.53;;;;;;;;;;4990482;28;20210;-35
2023/06/10 13:13:39;;;;;;;2.70;2.50;;;;;;;;;;4990868;28;20211;-32
2023/06/10 13:16:07;;;;;;;2.92;2.72;;;;;;;;;;4987884;28;20228;-32
2023/06/10 13:18:37;;;;;;;3.28;2.97;;;;;;;;;;4980344;28;20212;-32
2023/06/10 13:21:04;;;;;;;3.38;2.85;;;;;;;;;;4990142;28;20220;-32
2023/06/10 13:23:32;;;;;;;3.67;2.78;;;;;;;;;;4979951;28;20201;-33
2023/06/10 13:25:59;;;;;;;3.00;2.80;;;;;;;;;;4988810;28;20228;-32
2023/06/10 13:28:26;;;;;;;2.92;2.72;;;;;;;;;;4981099;28;20212;-30
2023/06/10 13:30:55;;;;;;;4.88;3.47;;;;;;;;;;4984475;28;20204;-33
2023/06/10 13:33:32;;;;;;;3.10;2.90;;;;;;;;;;4982060;28;20216;-32
2023/06/10 13:35:59;;;;;;;5.13;2.92;;;;;;;;;;4986851;28;20227;-31
2023/06/10 13:38:26;;;;;;;2.92;2.72;;;;;;;;;;4986407;28;20200;-32
2023/06/10 13:40:55;;;;;;;2.78;2.58;;;;;;;;;;4986786;28;20216;-31
2023/06/10 13:43:23;;;;;;;3.33;3.08;;;;;;;;;;4988605;28;20198;-34
2023/06/10 13:45:50;;;;;;;3.22;2.88;;;;;;;;;;4989193;28;20338;-29
2023/06/10 13:48:20;;;;;;;2.70;2.47;;;;;;;;;;4987010;28;20218;-32
2023/06/10 13:50:47;;;;;;;2.70;2.50;;;;;;;;;;4982188;28;20263;-30
2023/06/10 13:53:14;;;;;;;3.10;2.90;;;;;;;;;;4973291;28;20239;-34
2023/06/10 13:55:41;;;;;;;3.25;3.00;;;;;;;;;;4986527;28;20231;-29
2023/06/10 13:58:08;;;;;;;3.10;2.80;;;;;;;;;;4989123;28;20215;-30
2023/06/10 14:00:36;;;;;;;3.00;2.80;;;;;;;;;;4989190;28;20219;-32
2023/06/10 14:03:04;;;;;;;2.97;2.78;;;;;;;;;;4982878;28;20204;-33
2023/06/10 14:05:33;;;;;;;3.10;2.90;;;;;;;;;;4985937;28;20219;-35
2023/06/10 14:08:00;;;;;;;2.92;2.72;;;;;;;;;;4973894;28;20207;-34
2023/06/10 14:10:27;;;;;;;2.60;2.40;;;;;;;;;;4990419;28;20222;-30
2023/06/10 14:12:54;;;;;;;2.67;2.50;;;;;;;;;;4988039;28;20200;-32
2023/06/10 14:15:21;;;;;;;3.95;2.72;;;;;;;;;;4988563;28;20208;-31
2023/06/10 14:17:48;;;;;;;2.67;2.47;;;;;;;;;;4980616;28;20259;-32
2023/06/10 14:20:16;;;;;;;4.13;2.72;;;;;;;;;;4982891;28;20203;-32
2023/06/10 14:22:44;;;;;;;4.35;2.60;;;;;;;;;;4986280;28;20364;-31
2023/06/10 14:25:12;;;;;;;3.17;2.97;;;;;;;;;;4987851;28;20208;-30
2023/06/10 14:27:39;;;;;;;3.03;2.80;;;;;;;;;;4988012;28;20208;-34
2023/06/10 14:30:06;;;;;;;2.78;2.58;;;;;;;;;;4989458;28;20218;-35
2023/06/10 14:32:34;;;;;;;2.70;2.50;;;;;;;;;;4980283;28;20197;-32
2023/06/10 14:35:01;;;;;;;3.08;2.88;;;;;;;;;;4985900;28;20280;-30
2023/06/10 14:37:28;;;;;;;3.00;2.80;;;;;;;;;;4984549;28;20259;-31
2023/06/10 14:39:56;;;;;;;3.00;2.80;;;;;;;;;;4981475;28;20204;-33
2023/06/10 14:42:24;;;;;;;2.63;2.53;;;;;;;;;;4988569;28;20230;-33
2023/06/10 14:44:51;;;;;;;2.80;2.60;;;;;;;;;;4992674;28;20247;-34
2023/06/10 14:47:18;;;;;;;3.05;2.75;;;;;;;;;;4982092;28;20282;-34
2023/06/10 14:49:45;;;;;;;3.33;2.92;;;;;;;;;;4990565;28;20218;-29